Humidity-temperature Sensor

Selected Measurement Type: Relative Humidity

 
Relative Humidity [%]     6 entries per hour
Showing data from 12/1/2015 (00:00:00 Z) to 11/30/2015 (00:01:00 Z)
Previous Next [ Day | 3-Days | 7-Days ]
First Last
Prev [ Day | 3-Days | 7-Days ] Next
First Last

Start Time:     :
End Time:     :     
Time (in GMT) :00 :50 :40 :30 :20 :10
Previous Next [ Day | 3-Days | 7-Days ]
First Last
Prev [ Day | 3-Days | 7-Days ] Next
First Last


123 => good data
MM => data is determined as missing
-- => data not received/configured
Back to Top Back to Top
12/1/2015 00:00 to 23:10 92.14 91.91 92.47 93.17 92.78 91.82
11/30/2015 23:00 to 22:10 91.97 91.97 92.32 92.39 91.12 93.07
11/30/2015 22:00 to 21:10 93.59 93.03 91.45 91.26 90.51 93.63
11/30/2015 21:00 to 20:10 95.69 97.52 95.07 93.36 91.80 89.95
11/30/2015 20:00 to 19:10 90.89 93.15 92.51 93.38 97.44 99.89
11/30/2015 19:00 to 18:10 -- -- -- -- -- --
11/30/2015 18:00 to 17:10 99.87 -- -- 96.77 93.49 93.28
11/30/2015 17:00 to 16:10 92.86 93.88 93.09 92.51 94.67 94.94
11/30/2015 16:00 to 15:10 93.78 91.80 92.78 92.07 92.53 93.80
11/30/2015 15:00 to 14:10 93.30 92.18 91.84 93.88 93.38 92.47
11/30/2015 14:00 to 13:10 92.11 92.26 92.41 92.47 91.08 91.12
11/30/2015 13:00 to 12:10 91.70 92.86 94.78 97.35 94.07 93.26
11/30/2015 12:00 to 11:10 90.89 91.93 95.00 93.03 93.07 93.28
11/30/2015 11:00 to 10:10 93.57 94.30 94.57 95.38 96.09 95.90
11/30/2015 10:00 to 9:10 95.90 96.94 96.94 95.84 94.63 93.96
11/30/2015 09:00 to 8:10 93.61 93.61 92.84 93.11 94.21 93.55
11/30/2015 08:00 to 7:10 93.69 92.14 92.22 92.49 90.83 89.35
11/30/2015 07:00 to 6:10 90.64 90.24 90.12 89.64 89.64 90.16
11/30/2015 06:00 to 5:10 90.29 89.91 90.74 91.08 91.01 92.76
11/30/2015 05:00 to 4:10 94.32 94.53 93.26 92.28 91.99 93.42
11/30/2015 04:00 to 3:10 90.89 89.56 89.31 89.87 89.95 88.83
11/30/2015 03:00 to 2:10 89.02 89.31 89.12 89.00 89.02 88.91
11/30/2015 02:00 to 1:10 87.96 86.73 87.11 87.50 87.15 87.31
11/30/2015 01:00 to 0:10 89.06 88.52 88.04 87.50 88.14 87.62